Portada
METAR-TAF:

METAR-TAF

Aeroports :

Aeroport Internacional de Mitiga

Trípoli, Líbia

latitud: 32-54N, longitud: 13-17E, altitud: 11 m

Observació

L'informe es va fer fa 6 hores i 9 minuts, a les 20:50 UTC
Vent 4 kt del Est/Sud-Est
Temperatura 28°C
Humitat 66%
Pressió 1014 hPa
Visibilitat: 7000 m
Cel clar

METAR: HLLM 192050Z 11004KT 7000 SKC 28/21 Q1014

Hora: 04:59 (02:59 UTC)

Pronòstic

L'informe es va fer fa 21 hores i 59 minuts, a les 05:00 UTC
Pronòstic vàlid del 18 a les 06 UTC al 19 a les 06 UTC
Vent 10 kt del Nord/Nord-Oest
Visibilitat 10 km o més
sense núvols per sota de 1500 mi sense presència de cumulonimbus.
Evolucionant progressivament
l' 18 a les 20 UTC al 18 a les 22 UTC
Vent 2 kt amb direcció variable
Visibilitat: 8000 m
Probabilitat 30%
entre TE i MP UTC
Visibilitat: 5000 m
boirina

TAF: HLLM 180500Z 1806/1906 34010KT CAVOK BECMG 1820/1822 VRB02KT 8000 NSC PROB30 TEMPO1900/1906 5000 BR

Observacions i pronòstics meteorològics de més de 4000 aeroports (METAR i TAF).

Les estacions disponibles són els punts grocs i vermells al mapa.

Posi el ratolí al punt desitjat per veure el nom de l'estació.

Feu clic per veure les observacions i els pronòstics meteorològics.

Per canviar el mapa: feu clic els botons verds amb una creu de color negre per apropar; al botó verd amb un guió per allunyar la imatge; o en les fletxes verdes per a mapes adjacents.


METAR-TAF: